Time;durP1;ratioP1;P1;durP2;ratioP2;P2;SDS_P1;SDS_P2;PMS_P1;PMS_P2;Temp;Humidity;BMP_temperature;BMP_pressure;BME280_temperature;BME280_humidity;BME280_pressure;Samples;Min_cycle;Max_cycle;Signal;HPM_P1;HPM_P2
2023/09/05 00:19:30;;;;;;;2.30;1.98;;;;;;;23.76;41.82;101098.22;41748161;28;20168;-76
2023/09/05 00:39:31;;;;;;;3.28;1.80;;;;;;;23.86;41.86;101092.22;41735418;28;20404;-72
2023/09/05 00:59:32;;;;;;;2.55;1.90;;;;;;;23.65;41.95;101038.22;41733935;28;20052;-74
2023/09/05 01:19:39;;;;;;;2.10;1.80;;;;;;;23.64;41.83;101033.91;41726132;28;20060;-74
2023/09/05 01:39:40;;;;;;;1.80;1.70;;;;;;;23.71;42.04;101063.34;41729480;28;20076;-74
2023/09/05 01:59:41;;;;;;;2.38;1.92;;;;;;;23.64;42.16;101046.28;41780973;28;20140;-74
2023/09/05 02:19:42;;;;;;;4.28;2.10;;;;;;;23.67;42.05;101043.41;41784269;28;20055;-77
2023/09/05 02:39:42;;;;;;;2.55;1.98;;;;;;;23.66;42.34;101047.84;41777060;28;20504;-74
2023/09/05 02:59:42;;;;;;;2.20;2.00;;;;;;;23.50;42.58;101040.25;41775690;28;20416;-73
2023/09/05 03:19:43;;;;;;;2.35;1.85;;;;;;;23.39;42.45;101027.03;41757054;28;20052;-73
2023/09/05 03:39:43;;;;;;;3.72;2.00;;;;;;;23.37;42.14;101051.91;41765463;28;21105;-76
2023/09/05 03:59:44;;;;;;;2.97;1.90;;;;;;;23.57;41.98;101087.38;41738344;28;20495;-73
2023/09/05 04:19:44;;;;;;;4.55;2.10;;;;;;;23.86;42.09;101102.78;41729227;28;20455;-75
2023/09/05 04:39:44;;;;;;;36.88;9.68;;;;;;;24.16;42.90;101110.16;41739022;28;20045;-77
2023/09/05 04:59:49;;;;;;;26.50;7.22;;;;;;;23.83;43.74;101125.03;41728571;28;20559;-70
2023/09/05 05:19:49;;;;;;;10.38;3.55;;;;;;;22.79;42.92;101036.78;41749304;28;20131;-78
2023/09/05 05:39:50;;;;;;;5.50;2.70;;;;;;;23.47;41.21;101140.09;41791587;28;20047;-73
2023/09/05 05:59:50;;;;;;;7.30;2.40;;;;;;;23.30;41.60;101138.72;41820771;28;20177;-81
2023/09/05 06:19:51;;;;;;;4.18;2.30;;;;;;;23.31;41.49;101093.69;41814275;28;20074;-78
2023/09/05 06:39:51;;;;;;;4.35;2.38;;;;;;;23.52;41.25;101110.66;41812977;28;20415;-76
2023/09/05 06:59:52;;;;;;;3.80;2.08;;;;;;;23.76;41.15;101142.34;41819812;28;20040;-77
2023/09/05 07:19:53;;;;;;;4.47;2.33;;;;;;;23.71;41.15;101142.69;41798360;28;20052;-76
2023/09/05 07:39:54;;;;;;;5.28;2.55;;;;;;;23.90;40.88;101163.28;41809829;28;20044;-77
2023/09/05 07:59:55;;;;;;;3.63;2.55;;;;;;;23.88;40.97;101137.91;41802883;28;20037;-77
2023/09/05 08:19:56;;;;;;;5.65;2.50;;;;;;;24.07;41.36;101150.56;41783661;28;20492;-74
2023/09/05 08:39:57;;;;;;;4.28;2.70;;;;;;;24.06;41.75;101144.44;41800581;28;20132;-77
2023/09/05 08:59:59;;;;;;;4.88;2.17;;;;;;;24.09;41.67;101124.84;41811020;28;20072;-77
2023/09/05 09:20:03;;;;;;;3.67;2.45;;;;;;;24.12;40.99;101085.75;41827107;28;20053;-79
2023/09/05 09:40:05;;;;;;;3.67;2.40;;;;;;;24.20;41.32;101073.72;41834171;28;20066;-81
2023/09/05 10:00:15;;;;;;;5.50;2.35;;;;;;;24.34;41.09;101069.97;41823932;28;20037;-76
2023/09/05 10:20:19;;;;;;;3.17;2.00;;;;;;;24.51;40.79;101056.22;41866299;28;20589;-79
2023/09/05 10:40:36;;;;;;;4.23;2.30;;;;;;;24.81;40.83;101046.75;41822411;28;20091;-83
2023/09/05 11:00:41;;;;;;;12.15;5.28;;;;;;;24.86;40.79;101025.19;41816329;28;20041;-75
2023/09/05 11:20:47;;;;;;;27.73;8.75;;;;;;;25.52;41.66;101016.13;41771013;28;20103;-77
2023/09/05 11:40:55;;;;;;;8.63;3.30;;;;;;;24.97;40.94;101008.38;41800054;28;20044;-76
2023/09/05 12:00:57;;;;;;;5.60;2.38;;;;;;;24.98;40.31;100994.19;41804844;28;20037;-77
2023/09/05 12:21:00;;;;;;;2.65;1.80;;;;;;;25.24;39.22;101006.06;41785019;28;20036;-76
2023/09/05 12:41:01;;;;;;;1.85;1.50;;;;;;;25.16;38.11;100963.47;41766479;28;20045;-75
2023/09/05 13:01:02;;;;;;;6.65;1.75;;;;;;;25.27;39.86;100944.00;41732661;28;20060;-73
2023/09/05 13:21:02;;;;;;;5.20;2.00;;;;;;;25.46;38.36;100939.78;41762701;28;20064;-75
2023/09/05 13:41:03;;;;;;;6.78;1.90;;;;;;;25.54;37.97;100924.03;41733839;28;20048;-77
2023/09/05 14:01:03;;;;;;;129.73;14.07;;;;;;;25.96;38.00;100946.88;41767999;28;20032;-74
2023/09/05 14:21:04;;;;;;;4.10;2.35;;;;;;;25.04;38.85;100948.63;41778433;28;21085;-75
2023/09/05 14:41:05;;;;;;;9.25;3.25;;;;;;;25.75;38.25;100928.41;41765000;28;20049;-78
2023/09/05 15:01:05;;;;;;;51.67;20.88;;;;;;;25.98;41.01;100919.22;41749125;28;20071;-76
2023/09/05 15:21:06;;;;;;;16.33;7.05;;;;;;;25.96;39.45;100897.28;41733596;28;20492;-72
2023/09/05 15:41:06;;;;;;;17.48;5.85;;;;;;;25.24;39.71;100841.72;41746692;28;20637;-76
2023/09/05 16:01:07;;;;;;;8.13;3.35;;;;;;;25.40;39.74;100898.72;41706240;28;20048;-79
2023/09/05 16:21:07;;;;;;;3.42;2.40;;;;;;;25.75;39.35;100917.81;41752459;28;20045;-77
2023/09/05 16:41:10;;;;;;;11.63;2.58;;;;;;;25.69;39.58;100911.22;41734879;28;20429;-81
2023/09/05 17:01:11;;;;;;;8.63;2.67;;;;;;;25.37;41.44;100944.03;41746882;28;20037;-76
2023/09/05 17:21:13;;;;;;;10.73;5.90;;;;;;;25.25;40.93;100952.09;41722888;28;20519;-77
2023/09/05 17:41:14;;;;;;;12.35;3.58;;;;;;;25.14;42.30;100961.91;41740106;28;20044;-76
2023/09/05 18:01:17;;;;;;;11.73;4.57;;;;;;;24.59;42.27;100953.16;41766650;28;20028;-78
2023/09/05 18:21:18;;;;;;;7.97;4.50;;;;;;;24.75;42.61;100996.94;41711847;28;20144;-76
2023/09/05 18:41:19;;;;;;;7.97;3.03;;;;;;;23.88;44.78;101018.91;41742641;28;20091;-76
2023/09/05 19:01:21;;;;;;;4.93;3.20;;;;;;;23.50;46.37;101028.84;41781367;28;20090;-75
2023/09/05 19:21:23;;;;;;;6.82;3.05;;;;;;;24.90;43.65;101008.06;41734873;28;20041;-78
2023/09/05 19:41:24;;;;;;;7.85;3.38;;;;;;;25.06;44.33;101023.50;41753482;28;20076;-73
2023/09/05 20:01:25;;;;;;;5.78;3.30;;;;;;;24.81;45.55;101033.50;41739920;28;20045;-75
2023/09/05 20:21:26;;;;;;;5.22;3.10;;;;;;;24.71;45.90;101033.41;41762999;28;20518;-76
2023/09/05 20:41:26;;;;;;;8.30;3.65;;;;;;;24.69;45.82;101034.53;41751482;28;20156;-76
2023/09/05 21:01:28;;;;;;;6.18;3.30;;;;;;;24.64;45.89;101032.22;41747769;28;20148;-75
2023/09/05 21:21:34;;;;;;;6.60;3.08;;;;;;;24.74;45.74;101045.56;41764300;28;20041;-79
2023/09/05 21:41:35;;;;;;;4.18;3.08;;;;;;;24.70;46.07;101052.09;41759940;28;20049;-76
2023/09/05 22:01:35;;;;;;;3.78;2.90;;;;;;;24.54;45.92;101039.25;41767752;28;20076;-76
2023/09/05 22:21:35;;;;;;;5.80;2.90;;;;;;;24.60;45.89;101060.75;41751043;28;20103;-76
2023/09/05 22:41:39;;;;;;;3.80;3.17;;;;;;;24.50;45.85;101053.69;41784455;28;20037;-75
2023/09/05 23:01:40;;;;;;;4.27;2.87;;;;;;;24.51;45.66;101047.41;41760966;28;20143;-75
2023/09/05 23:21:43;;;;;;;3.78;2.60;;;;;;;24.44;45.67;101050.56;41775238;28;20110;-75
2023/09/05 23:41:44;;;;;;;2.97;2.40;;;;;;;24.40;45.97;101027.09;41752948;28;20041;-75
